createdAt,value
2018-12-05T05:46:23.390Z,16.23
2018-12-05T05:48:51.846Z,17.43
2018-12-05T05:51:20.275Z,18.07
2018-12-05T05:53:49.286Z,17.27
2018-12-05T05:56:17.815Z,16.20
2018-12-05T05:58:46.336Z,16.83
2018-12-05T06:01:14.735Z,19.03
2018-12-05T06:03:43.482Z,19.37
2018-12-05T06:06:11.908Z,18.70
2018-12-05T06:08:40.591Z,18.47
2018-12-05T06:11:09.289Z,20.30
2018-12-05T06:13:37.828Z,19.10
2018-12-05T06:16:06.375Z,19.10
2018-12-05T06:18:34.979Z,25.33
2018-12-05T06:21:04.163Z,22.17
2018-12-05T06:23:32.799Z,22.50
2018-12-05T06:26:01.411Z,20.87
2018-12-05T06:28:30.104Z,17.47
2018-12-05T06:30:58.522Z,20.93
2018-12-05T06:33:27.181Z,19.77
2018-12-05T06:35:56.095Z,22.00
2018-12-05T06:38:24.591Z,20.07
2018-12-05T06:40:53.216Z,19.70
2018-12-05T06:43:21.817Z,17.93
2018-12-05T06:45:50.863Z,20.87
2018-12-05T06:48:19.288Z,20.27
2018-12-05T06:50:48.425Z,20.97
2018-12-05T06:53:17.552Z,19.13
2018-12-05T06:55:45.993Z,19.17
2018-12-05T06:58:14.405Z,19.87
2018-12-05T07:00:42.980Z,19.13
2018-12-05T07:03:12.197Z,20.63
2018-12-05T07:05:40.975Z,18.57
2018-12-05T07:08:10.293Z,18.00
2018-12-05T07:10:39.859Z,18.93
2018-12-05T07:13:08.337Z,23.37
2018-12-05T07:15:37.013Z,22.63
2018-12-05T07:18:06.450Z,24.80
2018-12-05T07:20:34.964Z,25.67
2018-12-05T07:23:03.651Z,25.10
2018-12-05T07:25:32.324Z,26.80
2018-12-05T07:28:01.151Z,23.80
2018-12-05T07:30:29.695Z,24.63
2018-12-05T07:32:58.642Z,28.67
2018-12-05T07:35:28.389Z,26.63
2018-12-05T07:37:56.871Z,24.50
2018-12-05T07:40:25.341Z,23.40
2018-12-05T07:42:53.987Z,25.87
2018-12-05T07:45:22.763Z,24.73
2018-12-05T07:47:51.194Z,21.73
2018-12-05T07:50:19.617Z,23.27
2018-12-05T07:52:48.444Z,26.00
2018-12-05T07:55:17.954Z,28.97
2018-12-05T07:57:46.689Z,23.57
2018-12-05T08:00:15.408Z,30.97
2018-12-05T08:02:43.872Z,23.93
2018-12-05T08:05:12.632Z,27.30
2018-12-05T08:07:41.449Z,30.60
2018-12-05T08:10:09.901Z,30.80
2018-12-05T08:12:38.867Z,28.10
2018-12-05T08:15:08.777Z,27.27
2018-12-05T08:17:37.487Z,29.77
2018-12-05T08:20:06.447Z,26.47
2018-12-05T08:22:35.423Z,30.43
2018-12-05T08:25:04.136Z,26.80
2018-12-05T08:27:32.605Z,30.73
2018-12-05T08:30:01.538Z,28.57
2018-12-05T08:32:30.121Z,25.57
2018-12-05T08:34:58.961Z,25.73
2018-12-05T08:39:59.619Z,22.47
2018-12-05T08:42:28.048Z,25.53
2018-12-05T08:44:56.732Z,23.77
2018-12-05T08:47:25.363Z,25.33
2018-12-05T08:49:53.820Z,23.50
2018-12-05T08:52:23.393Z,26.07
2018-12-05T08:54:51.983Z,25.70
2018-12-05T08:57:21.118Z,21.93
2018-12-05T08:59:49.747Z,23.77
2018-12-05T09:02:18.172Z,23.67
2018-12-05T09:04:46.809Z,21.63
2018-12-05T09:07:15.431Z,21.23
2018-12-05T09:09:44.207Z,25.70
2018-12-05T09:12:13.106Z,22.90
2018-12-05T09:14:41.654Z,25.27
2018-12-05T09:17:10.576Z,23.40
2018-12-05T09:19:39.903Z,22.73
2018-12-05T09:22:08.840Z,22.47
2018-12-05T09:24:37.292Z,23.23
2018-12-05T09:27:06.392Z,23.70
2018-12-05T09:29:35.834Z,29.27
2018-12-05T09:32:04.674Z,27.43
2018-12-05T09:34:33.479Z,25.93
2018-12-05T09:37:02.156Z,25.57
2018-12-05T09:39:30.620Z,28.07
2018-12-05T09:41:59.425Z,27.50
2018-12-05T09:44:28.471Z,24.37
2018-12-05T09:46:57.218Z,22.83
2018-12-05T09:49:25.707Z,23.27
2018-12-05T09:51:54.169Z,22.07
2018-12-05T09:54:22.622Z,25.10
2018-12-05T09:56:51.047Z,24.00
2018-12-05T09:59:19.773Z,20.20
2018-12-05T10:01:49.125Z,23.30
2018-12-05T10:04:18.019Z,21.67
2018-12-05T10:06:46.415Z,16.57
2018-12-05T10:09:14.902Z,18.60
2018-12-05T10:11:44.071Z,17.93
2018-12-05T10:14:12.712Z,19.20
2018-12-05T10:16:41.553Z,18.97
2018-12-05T10:19:10.396Z,16.33
2018-12-05T10:21:39.115Z,16.07
2018-12-05T10:24:07.726Z,16.50
2018-12-05T10:26:36.361Z,17.43
2018-12-05T10:29:05.189Z,20.60
2018-12-05T10:31:34.505Z,14.60
2018-12-05T10:34:03.760Z,16.33
2018-12-05T10:36:32.996Z,18.50
2018-12-05T10:39:01.752Z,18.20
2018-12-05T10:41:30.417Z,16.97
2018-12-05T10:43:59.491Z,16.03
2018-12-05T10:46:28.162Z,16.80
2018-12-05T10:48:57.133Z,19.47
2018-12-05T10:51:25.965Z,17.47
2018-12-05T10:53:54.464Z,17.47
2018-12-05T10:56:23.190Z,16.23
2018-12-05T10:58:52.354Z,16.23
2018-12-05T11:01:26.048Z,14.83
2018-12-05T11:03:54.499Z,16.40
2018-12-05T11:08:35.050Z,13.93
2018-12-05T11:11:08.602Z,15.17
2018-12-05T11:13:42.374Z,12.90
2018-12-05T11:16:16.539Z,16.53
2018-12-05T11:18:50.506Z,13.47
2018-12-05T11:21:24.720Z,15.60
2018-12-05T11:23:57.452Z,14.33
2018-12-05T11:26:30.345Z,14.60
2018-12-05T11:28:58.916Z,14.27
2018-12-05T11:31:27.850Z,14.27
2018-12-05T11:33:56.642Z,15.40
2018-12-05T11:36:25.392Z,16.00
2018-12-05T11:38:54.143Z,15.43
2018-12-05T11:41:22.896Z,13.70
2018-12-05T11:43:51.564Z,14.23
2018-12-05T11:46:20.544Z,15.10
2018-12-05T11:48:49.202Z,16.37
2018-12-05T11:51:18.168Z,14.67
2018-12-05T11:53:46.585Z,14.73
2018-12-05T11:56:14.994Z,15.17
2018-12-05T11:58:43.736Z,14.83
2018-12-05T12:01:12.237Z,15.57
2018-12-05T12:03:40.753Z,16.20
2018-12-05T12:06:09.158Z,16.67
2018-12-05T12:08:38.085Z,14.83
2018-12-05T12:11:07.104Z,15.13
2018-12-05T12:13:35.846Z,14.83
2018-12-05T12:16:04.749Z,15.70
2018-12-05T12:18:34.145Z,17.70
2018-12-05T12:21:03.325Z,18.27
2018-12-05T12:23:32.096Z,18.57
2018-12-05T12:26:00.781Z,16.43
2018-12-05T12:28:29.745Z,17.57
2018-12-05T12:30:58.417Z,19.03
2018-12-05T12:33:27.400Z,20.43
2018-12-05T12:35:55.776Z,22.80
2018-12-05T12:38:24.469Z,21.60
2018-12-05T12:40:53.253Z,20.50
2018-12-05T12:43:22.684Z,21.10
2018-12-05T12:45:51.097Z,22.13
2018-12-05T12:48:19.541Z,22.83
2018-12-05T12:50:48.075Z,19.63
2018-12-05T12:53:17.291Z,18.57
2018-12-05T12:55:45.715Z,21.67
2018-12-05T12:58:14.544Z,21.20
2018-12-05T13:00:42.959Z,17.90
2018-12-05T13:03:11.559Z,22.93
2018-12-05T13:05:40.042Z,20.53
2018-12-05T13:08:08.997Z,21.10
2018-12-05T13:10:37.435Z,22.10
2018-12-05T13:13:05.844Z,21.30
2018-12-05T13:15:34.752Z,20.47
2018-12-05T13:18:03.300Z,24.33
2018-12-05T13:20:32.176Z,22.33
2018-12-05T13:23:01.395Z,25.17
2018-12-05T13:25:30.273Z,24.57
2018-12-05T13:27:58.782Z,27.93
2018-12-05T13:30:27.240Z,25.23
2018-12-05T13:32:55.724Z,23.67
2018-12-05T13:35:24.539Z,27.63
2018-12-05T13:37:53.504Z,28.00
2018-12-05T13:40:22.267Z,34.17
2018-12-05T13:42:51.319Z,29.77
2018-12-05T13:45:19.896Z,29.63
2018-12-05T13:47:48.612Z,26.73
2018-12-05T13:50:17.883Z,28.00
2018-12-05T13:52:46.348Z,27.43
2018-12-05T13:55:15.037Z,27.67
2018-12-05T13:57:43.547Z,26.37
2018-12-05T14:00:12.350Z,28.23
2018-12-05T14:02:47.577Z,28.23
2018-12-05T14:05:17.479Z,26.17
2018-12-05T14:07:46.135Z,29.93
2018-12-05T14:10:14.857Z,26.50
2018-12-05T14:12:43.736Z,24.20
2018-12-05T14:15:12.163Z,28.67
2018-12-05T14:17:41.083Z,25.80
2018-12-05T14:20:10.110Z,21.57
2018-12-05T14:22:38.774Z,23.13
2018-12-05T14:25:08.302Z,23.20
2018-12-05T14:27:37.463Z,20.53
2018-12-05T14:30:07.944Z,21.63
2018-12-05T14:32:36.859Z,23.57
2018-12-05T14:35:06.464Z,22.70
2018-12-05T14:37:35.111Z,19.97
2018-12-05T14:40:04.123Z,24.63
2018-12-05T14:42:32.962Z,25.27
2018-12-05T14:45:01.596Z,19.97
2018-12-05T14:47:30.192Z,25.30
2018-12-05T14:50:04.102Z,23.20
2018-12-05T14:52:33.148Z,21.50
2018-12-05T14:55:06.845Z,19.30
2018-12-05T14:57:36.572Z,23.70
2018-12-05T15:00:09.888Z,20.43
2018-12-05T15:02:42.397Z,21.97
2018-12-05T15:05:11.084Z,22.80
2018-12-05T15:07:39.591Z,22.10
2018-12-05T15:10:14.606Z,24.23
2018-12-05T15:12:47.767Z,18.90
2018-12-05T15:15:16.211Z,19.63
2018-12-05T15:17:45.603Z,20.63
2018-12-05T15:20:14.348Z,24.73
2018-12-05T15:22:43.526Z,20.80
2018-12-05T15:25:13.445Z,18.60
2018-12-05T15:27:42.375Z,18.70
2018-12-05T15:30:11.167Z,19.83
2018-12-05T15:32:42.768Z,17.63
2018-12-05T15:35:11.262Z,15.97
2018-12-05T15:37:41.752Z,15.87
2018-12-05T15:40:10.204Z,22.03
2018-12-05T15:42:38.667Z,19.40
2018-12-05T15:45:24.544Z,14.23
2018-12-05T15:47:59.838Z,20.73
2018-12-05T15:50:28.520Z,25.57
2018-12-05T15:52:58.132Z,18.20
2018-12-05T15:55:27.468Z,16.43
2018-12-05T15:57:56.634Z,20.43
2018-12-05T16:00:28.119Z,19.57
2018-12-05T16:02:57.188Z,20.17
2018-12-05T16:05:26.801Z,20.47
2018-12-05T16:07:55.236Z,20.13
2018-12-05T16:10:23.727Z,20.93
2018-12-05T16:12:52.546Z,16.77
2018-12-05T16:15:21.021Z,15.53
2018-12-05T16:17:49.910Z,16.17
2018-12-05T16:20:18.393Z,19.27
2018-12-05T16:22:46.887Z,19.47
2018-12-05T16:25:15.457Z,17.20
2018-12-05T16:27:44.890Z,17.07
2018-12-05T16:30:13.955Z,16.40
2018-12-05T16:32:42.627Z,15.20
2018-12-05T16:35:11.625Z,17.80
2018-12-05T16:37:40.917Z,19.90
2018-12-05T16:40:09.865Z,17.37
2018-12-05T16:42:38.886Z,16.73
2018-12-05T16:45:08.827Z,19.47
2018-12-05T16:47:38.181Z,19.90
2018-12-05T16:50:07.452Z,17.20
2018-12-05T16:52:36.210Z,19.30
2018-12-05T16:55:04.871Z,18.70
2018-12-05T16:57:33.376Z,15.77
2018-12-05T17:00:01.868Z,19.13
2018-12-05T17:02:30.851Z,18.03
2018-12-05T17:04:59.847Z,16.37
2018-12-05T17:07:28.953Z,18.40
2018-12-05T17:09:57.395Z,15.80
2018-12-05T17:12:26.790Z,16.63
2018-12-05T17:14:55.277Z,17.00
2018-12-05T17:17:23.772Z,16.37
2018-12-05T17:19:52.525Z,18.50
2018-12-05T17:22:20.947Z,16.77
2018-12-05T17:24:49.645Z,13.37
2018-12-05T17:27:18.360Z,21.27
2018-12-05T17:29:46.917Z,23.17
2018-12-05T17:32:15.368Z,20.20
2018-12-05T17:34:43.820Z,19.70
2018-12-05T17:37:12.797Z,20.47
2018-12-05T17:39:41.271Z,18.10
2018-12-05T17:42:09.819Z,15.77
2018-12-05T17:44:38.252Z,14.53
2018-12-05T17:47:06.908Z,14.63
2018-12-05T17:49:35.555Z,15.23
2018-12-05T17:52:04.057Z,15.10
2018-12-05T17:54:32.923Z,17.07
2018-12-05T17:57:01.363Z,19.40
2018-12-05T17:59:30.056Z,20.00
2018-12-05T18:01:58.713Z,17.97
2018-12-05T18:04:27.543Z,21.70
2018-12-05T18:06:56.222Z,12.67
2018-12-05T18:09:25.040Z,13.47
2018-12-05T18:11:53.555Z,14.73
2018-12-05T18:14:22.127Z,15.63
2018-12-05T18:16:50.521Z,16.83
2018-12-05T18:19:18.953Z,15.30
2018-12-05T18:21:47.844Z,18.00
2018-12-05T18:24:16.288Z,20.20
2018-12-05T18:26:45.344Z,16.50
2018-12-05T18:29:14.244Z,13.33
2018-12-05T18:31:42.953Z,14.13
2018-12-05T18:34:11.404Z,16.40
2018-12-05T18:36:40.295Z,14.47
2018-12-05T18:39:09.071Z,16.73
2018-12-05T18:41:38.268Z,15.73
2018-12-05T18:44:07.128Z,11.53
2018-12-05T18:46:35.678Z,16.80
2018-12-05T18:49:04.959Z,15.33
2018-12-05T18:51:34.583Z,18.13
2018-12-05T18:54:03.521Z,16.57
2018-12-05T18:56:32.215Z,14.97
2018-12-05T18:59:01.139Z,13.60
2018-12-05T19:01:29.576Z,12.63
2018-12-05T19:03:58.577Z,14.73
2018-12-05T19:06:27.049Z,15.73
2018-12-05T19:08:55.644Z,18.17
2018-12-05T19:11:24.642Z,13.93
2018-12-05T19:13:58.417Z,12.30
2018-12-05T19:16:27.015Z,17.20
2018-12-05T19:18:56.011Z,18.00
2018-12-05T19:21:24.596Z,19.77
2018-12-05T19:23:53.631Z,18.00
2018-12-05T19:26:22.226Z,13.90
2018-12-05T19:28:50.797Z,15.93
2018-12-05T19:31:19.598Z,18.53
2018-12-05T19:33:48.873Z,22.43
2018-12-05T19:36:17.691Z,18.97
2018-12-05T19:38:46.624Z,13.33
2018-12-05T19:41:15.245Z,16.63
2018-12-05T19:43:43.701Z,17.70
2018-12-05T19:46:12.157Z,14.63
2018-12-05T19:48:40.795Z,19.17
2018-12-05T19:51:10.314Z,13.47
2018-12-05T19:53:39.519Z,14.10
2018-12-05T19:56:08.279Z,18.53
2018-12-05T19:58:37.047Z,16.23
2018-12-05T20:01:05.725Z,12.80
2018-12-05T20:03:34.390Z,16.07
2018-12-05T20:06:03.194Z,15.67
2018-12-05T20:08:32.030Z,14.67
2018-12-05T20:11:04.816Z,14.13
2018-12-05T20:13:35.344Z,15.73
2018-12-05T20:16:04.592Z,16.90
2018-12-05T20:18:33.558Z,17.53
2018-12-05T20:21:02.087Z,22.50
2018-12-05T20:23:31.282Z,17.47
2018-12-05T20:26:01.089Z,15.67
2018-12-05T20:28:29.526Z,23.60
2018-12-05T20:30:58.295Z,21.80
2018-12-05T20:33:26.963Z,18.57
2018-12-05T20:35:55.992Z,19.90
2018-12-05T20:38:24.697Z,17.57
2018-12-05T20:40:53.569Z,15.17
2018-12-05T20:43:22.059Z,21.13
2018-12-05T20:45:50.562Z,17.20
2018-12-05T20:48:19.676Z,21.83
2018-12-05T20:50:48.651Z,17.57
2018-12-05T20:53:17.129Z,21.10
2018-12-05T20:55:45.751Z,19.77
2018-12-05T20:58:14.426Z,19.43
2018-12-05T21:00:42.917Z,16.33
2018-12-05T21:03:12.415Z,21.37
2018-12-05T21:05:41.402Z,20.77
2018-12-05T21:08:10.344Z,19.83
2018-12-05T21:10:38.912Z,17.00
2018-12-05T21:13:07.441Z,19.43
2018-12-05T21:15:36.163Z,15.57
2018-12-05T21:18:04.768Z,16.83
2018-12-05T21:20:33.491Z,16.67
2018-12-05T21:23:01.933Z,17.63
2018-12-05T21:25:31.186Z,19.53
2018-12-05T21:27:59.921Z,14.13
2018-12-05T21:30:28.376Z,17.13
2018-12-05T21:32:57.094Z,17.43
2018-12-05T21:35:25.909Z,19.17
2018-12-05T21:37:54.398Z,19.17
2018-12-05T21:40:22.865Z,19.03
2018-12-05T21:42:51.293Z,15.30
2018-12-05T21:45:19.763Z,18.13
2018-12-05T21:47:48.236Z,20.50
2018-12-05T21:50:16.732Z,16.07
2018-12-05T21:52:45.244Z,16.07
2018-12-05T21:55:13.641Z,18.43
2018-12-05T21:57:42.259Z,18.13
2018-12-05T22:00:13.239Z,17.83
2018-12-05T22:02:42.100Z,17.63
2018-12-05T22:05:10.737Z,25.10
2018-12-05T22:07:39.495Z,20.00
2018-12-05T22:10:09.726Z,19.50
2018-12-05T22:12:38.355Z,17.97
2018-12-05T22:15:07.149Z,15.67
2018-12-05T22:17:35.767Z,21.47
2018-12-05T22:20:05.780Z,16.90
2018-12-05T22:22:34.628Z,15.47
2018-12-05T22:25:04.085Z,19.13
2018-12-05T22:27:32.621Z,16.80
2018-12-05T22:30:02.031Z,18.37
